sensor_id;sensor_type;location;lat;lon;timestamp;P1;durP1;ratioP1;P2;durP2;ratioP2
16472;SDS011;8347;52.486;13.432;2023-11-19T00:02:12;15.48;;;7.60;;
16472;SDS011;8347;52.486;13.432;2023-11-19T00:04:58;8.63;;;6.32;;
16472;SDS011;8347;52.486;13.432;2023-11-19T00:07:45;9.95;;;7.65;;
16472;SDS011;8347;52.486;13.432;2023-11-19T00:10:32;13.70;;;7.65;;
16472;SDS011;8347;52.486;13.432;2023-11-19T00:13:18;10.90;;;7.55;;
16472;SDS011;8347;52.486;13.432;2023-11-19T00:16:05;12.25;;;6.85;;
16472;SDS011;8347;52.486;13.432;2023-11-19T00:18:53;13.23;;;9.27;;
16472;SDS011;8347;52.486;13.432;2023-11-19T00:21:39;9.65;;;6.60;;
16472;SDS011;8347;52.486;13.432;2023-11-19T00:24:26;10.27;;;6.38;;
16472;SDS011;8347;52.486;13.432;2023-11-19T00:27:13;13.25;;;8.55;;
16472;SDS011;8347;52.486;13.432;2023-11-19T00:30:02;12.23;;;8.05;;
16472;SDS011;8347;52.486;13.432;2023-11-19T00:32:51;13.88;;;7.53;;
16472;SDS011;8347;52.486;13.432;2023-11-19T00:35:37;10.20;;;7.45;;
16472;SDS011;8347;52.486;13.432;2023-11-19T00:38:24;14.45;;;7.68;;
16472;SDS011;8347;52.486;13.432;2023-11-19T00:41:10;8.95;;;6.97;;
16472;SDS011;8347;52.486;13.432;2023-11-19T00:43:57;10.70;;;7.47;;
16472;SDS011;8347;52.486;13.432;2023-11-19T00:46:44;10.05;;;6.85;;
16472;SDS011;8347;52.486;13.432;2023-11-19T00:49:31;10.75;;;6.88;;
16472;SDS011;8347;52.486;13.432;2023-11-19T00:52:21;10.55;;;7.25;;
16472;SDS011;8347;52.486;13.432;2023-11-19T00:55:07;10.27;;;6.68;;
16472;SDS011;8347;52.486;13.432;2023-11-19T00:57:54;11.77;;;7.13;;
16472;SDS011;8347;52.486;13.432;2023-11-19T01:00:42;11.02;;;7.50;;
16472;SDS011;8347;52.486;13.432;2023-11-19T01:03:28;8.45;;;6.43;;
16472;SDS011;8347;52.486;13.432;2023-11-19T01:06:15;8.88;;;6.13;;
16472;SDS011;8347;52.486;13.432;2023-11-19T01:09:13;9.15;;;6.80;;
16472;SDS011;8347;52.486;13.432;2023-11-19T01:11:59;8.73;;;5.88;;
16472;SDS011;8347;52.486;13.432;2023-11-19T01:14:46;8.45;;;5.78;;
16472;SDS011;8347;52.486;13.432;2023-11-19T01:17:33;9.50;;;7.00;;
16472;SDS011;8347;52.486;13.432;2023-11-19T01:20:20;10.43;;;6.43;;
16472;SDS011;8347;52.486;13.432;2023-11-19T01:23:06;9.05;;;6.00;;
16472;SDS011;8347;52.486;13.432;2023-11-19T01:25:53;9.40;;;6.82;;
16472;SDS011;8347;52.486;13.432;2023-11-19T01:28:40;9.65;;;6.85;;
16472;SDS011;8347;52.486;13.432;2023-11-19T01:31:28;9.15;;;6.38;;
16472;SDS011;8347;52.486;13.432;2023-11-19T01:34:15;8.18;;;5.70;;
16472;SDS011;8347;52.486;13.432;2023-11-19T01:37:02;8.23;;;5.65;;
16472;SDS011;8347;52.486;13.432;2023-11-19T01:39:48;9.02;;;6.57;;
16472;SDS011;8347;52.486;13.432;2023-11-19T01:42:38;10.57;;;6.30;;
16472;SDS011;8347;52.486;13.432;2023-11-19T01:45:27;7.47;;;5.47;;
16472;SDS011;8347;52.486;13.432;2023-11-19T01:48:14;11.02;;;6.25;;
16472;SDS011;8347;52.486;13.432;2023-11-19T01:51:01;7.70;;;5.43;;
16472;SDS011;8347;52.486;13.432;2023-11-19T01:53:48;5.68;;;5.05;;
16472;SDS011;8347;52.486;13.432;2023-11-19T01:56:36;10.82;;;5.85;;
16472;SDS011;8347;52.486;13.432;2023-11-19T01:59:23;9.38;;;6.22;;
16472;SDS011;8347;52.486;13.432;2023-11-19T02:02:12;12.48;;;6.18;;
16472;SDS011;8347;52.486;13.432;2023-11-19T02:04:58;9.50;;;5.65;;
16472;SDS011;8347;52.486;13.432;2023-11-19T02:07:45;9.50;;;6.05;;
16472;SDS011;8347;52.486;13.432;2023-11-19T02:10:32;10.35;;;6.65;;
16472;SDS011;8347;52.486;13.432;2023-11-19T02:13:20;10.23;;;5.93;;
16472;SDS011;8347;52.486;13.432;2023-11-19T02:16:06;9.10;;;5.88;;
16472;SDS011;8347;52.486;13.432;2023-11-19T02:18:55;8.38;;;6.10;;
16472;SDS011;8347;52.486;13.432;2023-11-19T02:21:41;8.68;;;6.72;;
16472;SDS011;8347;52.486;13.432;2023-11-19T02:24:28;9.70;;;5.93;;
16472;SDS011;8347;52.486;13.432;2023-11-19T02:27:26;10.55;;;5.10;;
16472;SDS011;8347;52.486;13.432;2023-11-19T02:30:16;14.05;;;5.80;;
16472;SDS011;8347;52.486;13.432;2023-11-19T02:33:03;9.77;;;6.57;;
16472;SDS011;8347;52.486;13.432;2023-11-19T02:35:51;7.03;;;5.85;;
16472;SDS011;8347;52.486;13.432;2023-11-19T02:38:37;7.50;;;5.18;;
16472;SDS011;8347;52.486;13.432;2023-11-19T02:41:24;6.38;;;5.32;;
16472;SDS011;8347;52.486;13.432;2023-11-19T02:44:10;7.93;;;5.25;;
16472;SDS011;8347;52.486;13.432;2023-11-19T02:46:57;7.20;;;5.40;;
16472;SDS011;8347;52.486;13.432;2023-11-19T02:49:45;8.15;;;5.30;;
16472;SDS011;8347;52.486;13.432;2023-11-19T02:52:32;5.05;;;4.10;;
16472;SDS011;8347;52.486;13.432;2023-11-19T02:55:23;7.50;;;5.40;;
16472;SDS011;8347;52.486;13.432;2023-11-19T02:58:10;6.90;;;5.07;;
16472;SDS011;8347;52.486;13.432;2023-11-19T03:01:05;7.18;;;4.82;;
16472;SDS011;8347;52.486;13.432;2023-11-19T03:03:59;10.27;;;4.25;;
16472;SDS011;8347;52.486;13.432;2023-11-19T03:06:47;6.80;;;4.72;;
16472;SDS011;8347;52.486;13.432;2023-11-19T03:09:34;8.43;;;5.38;;
16472;SDS011;8347;52.486;13.432;2023-11-19T03:12:21;4.40;;;3.88;;
16472;SDS011;8347;52.486;13.432;2023-11-19T03:15:07;6.78;;;3.88;;
16472;SDS011;8347;52.486;13.432;2023-11-19T03:17:57;8.20;;;4.30;;
16472;SDS011;8347;52.486;13.432;2023-11-19T03:20:44;6.70;;;4.90;;
16472;SDS011;8347;52.486;13.432;2023-11-19T03:23:32;6.90;;;4.85;;
16472;SDS011;8347;52.486;13.432;2023-11-19T03:26:19;6.38;;;5.63;;
16472;SDS011;8347;52.486;13.432;2023-11-19T03:29:05;7.95;;;5.00;;
16472;SDS011;8347;52.486;13.432;2023-11-19T03:31:52;9.15;;;4.88;;
16472;SDS011;8347;52.486;13.432;2023-11-19T03:34:38;7.63;;;4.80;;
16472;SDS011;8347;52.486;13.432;2023-11-19T03:37:26;10.90;;;5.55;;
16472;SDS011;8347;52.486;13.432;2023-11-19T03:40:13;7.50;;;5.32;;
16472;SDS011;8347;52.486;13.432;2023-11-19T03:43:00;6.82;;;4.60;;
16472;SDS011;8347;52.486;13.432;2023-11-19T03:45:46;8.68;;;6.32;;
16472;SDS011;8347;52.486;13.432;2023-11-19T03:48:33;7.13;;;5.03;;
16472;SDS011;8347;52.486;13.432;2023-11-19T03:51:23;8.18;;;6.15;;
16472;SDS011;8347;52.486;13.432;2023-11-19T03:54:10;8.60;;;5.10;;
16472;SDS011;8347;52.486;13.432;2023-11-19T03:56:57;8.43;;;6.22;;
16472;SDS011;8347;52.486;13.432;2023-11-19T03:59:43;10.98;;;5.82;;
16472;SDS011;8347;52.486;13.432;2023-11-19T04:02:30;9.68;;;6.53;;
16472;SDS011;8347;52.486;13.432;2023-11-19T04:05:16;12.02;;;6.78;;
16472;SDS011;8347;52.486;13.432;2023-11-19T04:08:04;11.63;;;6.30;;
16472;SDS011;8347;52.486;13.432;2023-11-19T04:10:51;9.43;;;6.10;;
16472;SDS011;8347;52.486;13.432;2023-11-19T04:13:38;10.50;;;6.40;;
16472;SDS011;8347;52.486;13.432;2023-11-19T04:16:27;12.02;;;7.55;;
16472;SDS011;8347;52.486;13.432;2023-11-19T04:19:14;9.60;;;6.32;;
16472;SDS011;8347;52.486;13.432;2023-11-19T04:22:01;10.35;;;6.60;;
16472;SDS011;8347;52.486;13.432;2023-11-19T04:24:48;10.98;;;6.07;;
16472;SDS011;8347;52.486;13.432;2023-11-19T04:27:35;11.13;;;6.13;;
16472;SDS011;8347;52.486;13.432;2023-11-19T04:30:21;10.75;;;7.07;;
16472;SDS011;8347;52.486;13.432;2023-11-19T04:33:09;10.02;;;6.80;;
16472;SDS011;8347;52.486;13.432;2023-11-19T04:35:55;11.10;;;7.25;;
16472;SDS011;8347;52.486;13.432;2023-11-19T04:38:42;10.73;;;6.70;;
16472;SDS011;8347;52.486;13.432;2023-11-19T04:41:28;9.55;;;6.32;;
16472;SDS011;8347;52.486;13.432;2023-11-19T04:44:15;11.35;;;7.00;;
16472;SDS011;8347;52.486;13.432;2023-11-19T04:47:01;10.10;;;7.38;;
16472;SDS011;8347;52.486;13.432;2023-11-19T04:49:48;13.60;;;7.75;;
16472;SDS011;8347;52.486;13.432;2023-11-19T04:52:34;13.13;;;7.88;;
16472;SDS011;8347;52.486;13.432;2023-11-19T04:55:23;13.70;;;7.85;;
16472;SDS011;8347;52.486;13.432;2023-11-19T04:58:10;9.35;;;6.75;;
16472;SDS011;8347;52.486;13.432;2023-11-19T05:00:56;13.35;;;7.72;;
16472;SDS011;8347;52.486;13.432;2023-11-19T05:03:43;10.13;;;6.93;;
16472;SDS011;8347;52.486;13.432;2023-11-19T05:06:31;12.32;;;7.30;;
16472;SDS011;8347;52.486;13.432;2023-11-19T05:09:17;10.15;;;7.13;;
16472;SDS011;8347;52.486;13.432;2023-11-19T05:12:04;9.25;;;6.95;;
16472;SDS011;8347;52.486;13.432;2023-11-19T05:14:51;14.30;;;7.18;;
16472;SDS011;8347;52.486;13.432;2023-11-19T05:17:37;13.65;;;6.97;;
16472;SDS011;8347;52.486;13.432;2023-11-19T05:20:24;11.77;;;8.23;;
16472;SDS011;8347;52.486;13.432;2023-11-19T05:23:11;13.43;;;7.55;;
16472;SDS011;8347;52.486;13.432;2023-11-19T05:25:57;9.48;;;6.70;;
16472;SDS011;8347;52.486;13.432;2023-11-19T05:28:44;10.93;;;7.15;;
16472;SDS011;8347;52.486;13.432;2023-11-19T05:31:30;9.95;;;6.85;;
16472;SDS011;8347;52.486;13.432;2023-11-19T05:34:17;11.15;;;7.15;;
16472;SDS011;8347;52.486;13.432;2023-11-19T05:37:03;9.55;;;7.05;;
16472;SDS011;8347;52.486;13.432;2023-11-19T05:39:51;11.88;;;7.43;;
16472;SDS011;8347;52.486;13.432;2023-11-19T05:42:38;9.32;;;6.70;;
16472;SDS011;8347;52.486;13.432;2023-11-19T05:45:24;13.50;;;7.75;;
16472;SDS011;8347;52.486;13.432;2023-11-19T05:48:11;12.63;;;7.50;;
16472;SDS011;8347;52.486;13.432;2023-11-19T05:50:57;11.23;;;6.90;;
16472;SDS011;8347;52.486;13.432;2023-11-19T05:53:44;8.90;;;7.05;;
16472;SDS011;8347;52.486;13.432;2023-11-19T05:56:31;10.07;;;7.03;;
16472;SDS011;8347;52.486;13.432;2023-11-19T05:59:18;9.55;;;7.40;;
16472;SDS011;8347;52.486;13.432;2023-11-19T06:02:05;9.68;;;6.68;;
16472;SDS011;8347;52.486;13.432;2023-11-19T06:04:52;10.52;;;7.18;;
16472;SDS011;8347;52.486;13.432;2023-11-19T06:07:39;10.23;;;6.85;;
16472;SDS011;8347;52.486;13.432;2023-11-19T06:10:27;13.02;;;7.88;;
16472;SDS011;8347;52.486;13.432;2023-11-19T06:13:16;8.90;;;6.63;;
16472;SDS011;8347;52.486;13.432;2023-11-19T06:16:03;11.73;;;5.85;;
16472;SDS011;8347;52.486;13.432;2023-11-19T06:18:50;8.95;;;6.93;;
16472;SDS011;8347;52.486;13.432;2023-11-19T06:21:36;10.00;;;6.78;;
16472;SDS011;8347;52.486;13.432;2023-11-19T06:24:23;9.75;;;6.55;;
16472;SDS011;8347;52.486;13.432;2023-11-19T06:27:09;8.38;;;6.68;;
16472;SDS011;8347;52.486;13.432;2023-11-19T06:29:56;10.75;;;6.68;;
16472;SDS011;8347;52.486;13.432;2023-11-19T06:32:43;8.70;;;6.50;;
16472;SDS011;8347;52.486;13.432;2023-11-19T06:35:29;9.27;;;6.47;;
16472;SDS011;8347;52.486;13.432;2023-11-19T06:38:21;10.10;;;6.47;;
16472;SDS011;8347;52.486;13.432;2023-11-19T06:41:08;8.82;;;6.20;;
16472;SDS011;8347;52.486;13.432;2023-11-19T06:43:57;7.82;;;6.00;;
16472;SDS011;8347;52.486;13.432;2023-11-19T06:46:45;10.73;;;6.10;;
16472;SDS011;8347;52.486;13.432;2023-11-19T06:49:31;10.30;;;5.85;;
16472;SDS011;8347;52.486;13.432;2023-11-19T06:52:18;9.52;;;6.45;;
16472;SDS011;8347;52.486;13.432;2023-11-19T06:55:05;9.65;;;7.05;;
16472;SDS011;8347;52.486;13.432;2023-11-19T06:57:52;10.45;;;6.78;;
16472;SDS011;8347;52.486;13.432;2023-11-19T07:00:38;7.70;;;6.43;;
16472;SDS011;8347;52.486;13.432;2023-11-19T07:03:25;8.65;;;6.15;;
16472;SDS011;8347;52.486;13.432;2023-11-19T07:06:11;9.15;;;5.38;;
16472;SDS011;8347;52.486;13.432;2023-11-19T07:09:01;9.30;;;5.97;;
16472;SDS011;8347;52.486;13.432;2023-11-19T07:11:55;8.02;;;6.15;;
16472;SDS011;8347;52.486;13.432;2023-11-19T07:14:41;10.73;;;6.05;;
16472;SDS011;8347;52.486;13.432;2023-11-19T07:17:29;9.30;;;6.20;;
16472;SDS011;8347;52.486;13.432;2023-11-19T07:20:15;7.07;;;5.43;;
16472;SDS011;8347;52.486;13.432;2023-11-19T07:23:02;10.13;;;6.13;;
16472;SDS011;8347;52.486;13.432;2023-11-19T07:25:48;8.73;;;4.65;;
16472;SDS011;8347;52.486;13.432;2023-11-19T07:28:37;7.28;;;6.07;;
16472;SDS011;8347;52.486;13.432;2023-11-19T07:31:25;6.50;;;5.15;;
16472;SDS011;8347;52.486;13.432;2023-11-19T07:34:13;7.75;;;5.47;;
16472;SDS011;8347;52.486;13.432;2023-11-19T07:37:00;7.07;;;4.90;;
16472;SDS011;8347;52.486;13.432;2023-11-19T07:39:48;7.30;;;5.65;;
16472;SDS011;8347;52.486;13.432;2023-11-19T07:42:34;9.55;;;5.95;;
16472;SDS011;8347;52.486;13.432;2023-11-19T07:45:21;9.82;;;6.55;;
16472;SDS011;8347;52.486;13.432;2023-11-19T07:48:08;7.65;;;6.20;;
16472;SDS011;8347;52.486;13.432;2023-11-19T07:50:54;9.60;;;5.97;;
16472;SDS011;8347;52.486;13.432;2023-11-19T07:53:40;8.35;;;5.85;;
16472;SDS011;8347;52.486;13.432;2023-11-19T07:56:27;6.97;;;5.13;;
16472;SDS011;8347;52.486;13.432;2023-11-19T07:59:13;8.93;;;6.13;;
16472;SDS011;8347;52.486;13.432;2023-11-19T08:02:00;7.55;;;5.97;;
16472;SDS011;8347;52.486;13.432;2023-11-19T08:04:46;10.00;;;6.70;;
16472;SDS011;8347;52.486;13.432;2023-11-19T08:07:35;9.18;;;6.13;;
16472;SDS011;8347;52.486;13.432;2023-11-19T08:10:22;7.93;;;5.90;;
16472;SDS011;8347;52.486;13.432;2023-11-19T08:13:08;8.05;;;5.85;;
16472;SDS011;8347;52.486;13.432;2023-11-19T08:15:55;7.68;;;5.47;;
16472;SDS011;8347;52.486;13.432;2023-11-19T08:18:42;7.28;;;5.57;;
16472;SDS011;8347;52.486;13.432;2023-11-19T08:21:29;8.02;;;5.88;;
16472;SDS011;8347;52.486;13.432;2023-11-19T08:24:15;7.65;;;5.85;;
16472;SDS011;8347;52.486;13.432;2023-11-19T08:27:02;10.93;;;6.53;;
16472;SDS011;8347;52.486;13.432;2023-11-19T08:29:49;9.85;;;6.43;;
16472;SDS011;8347;52.486;13.432;2023-11-19T08:32:35;7.45;;;5.88;;
16472;SDS011;8347;52.486;13.432;2023-11-19T08:35:22;14.98;;;7.95;;
16472;SDS011;8347;52.486;13.432;2023-11-19T08:38:09;7.70;;;6.18;;
16472;SDS011;8347;52.486;13.432;2023-11-19T08:40:55;7.93;;;6.10;;
16472;SDS011;8347;52.486;13.432;2023-11-19T08:43:45;8.82;;;6.88;;
16472;SDS011;8347;52.486;13.432;2023-11-19T08:46:32;11.48;;;8.05;;
16472;SDS011;8347;52.486;13.432;2023-11-19T08:49:19;10.02;;;7.13;;
16472;SDS011;8347;52.486;13.432;2023-11-19T08:52:05;9.75;;;7.05;;
16472;SDS011;8347;52.486;13.432;2023-11-19T08:54:54;9.30;;;6.93;;
16472;SDS011;8347;52.486;13.432;2023-11-19T08:57:41;10.30;;;7.50;;
16472;SDS011;8347;52.486;13.432;2023-11-19T09:00:28;15.68;;;7.32;;
16472;SDS011;8347;52.486;13.432;2023-11-19T09:03:15;8.85;;;7.05;;
16472;SDS011;8347;52.486;13.432;2023-11-19T09:06:01;10.80;;;7.25;;
16472;SDS011;8347;52.486;13.432;2023-11-19T09:08:48;10.02;;;6.40;;
16472;SDS011;8347;52.486;13.432;2023-11-19T09:11:34;8.00;;;5.90;;
16472;SDS011;8347;52.486;13.432;2023-11-19T09:14:22;7.97;;;5.63;;
16472;SDS011;8347;52.486;13.432;2023-11-19T09:17:11;6.72;;;5.40;;
16472;SDS011;8347;52.486;13.432;2023-11-19T09:19:58;7.60;;;5.68;;
16472;SDS011;8347;52.486;13.432;2023-11-19T09:22:44;7.30;;;5.43;;
16472;SDS011;8347;52.486;13.432;2023-11-19T09:25:30;9.27;;;4.78;;
16472;SDS011;8347;52.486;13.432;2023-11-19T09:28:17;6.70;;;5.03;;
16472;SDS011;8347;52.486;13.432;2023-11-19T09:31:12;6.68;;;5.15;;
16472;SDS011;8347;52.486;13.432;2023-11-19T09:33:59;7.72;;;5.22;;
16472;SDS011;8347;52.486;13.432;2023-11-19T09:36:46;5.03;;;4.18;;
16472;SDS011;8347;52.486;13.432;2023-11-19T09:39:32;5.18;;;4.38;;
16472;SDS011;8347;52.486;13.432;2023-11-19T09:42:21;5.72;;;4.10;;
16472;SDS011;8347;52.486;13.432;2023-11-19T09:45:12;5.55;;;4.32;;
16472;SDS011;8347;52.486;13.432;2023-11-19T09:47:59;5.22;;;3.55;;
16472;SDS011;8347;52.486;13.432;2023-11-19T09:50:48;5.43;;;3.80;;
16472;SDS011;8347;52.486;13.432;2023-11-19T09:53:35;5.38;;;3.72;;
16472;SDS011;8347;52.486;13.432;2023-11-19T09:56:22;6.35;;;3.83;;
16472;SDS011;8347;52.486;13.432;2023-11-19T09:59:09;5.93;;;4.38;;
16472;SDS011;8347;52.486;13.432;2023-11-19T10:01:58;5.53;;;3.50;;
16472;SDS011;8347;52.486;13.432;2023-11-19T10:04:45;15.88;;;6.32;;
16472;SDS011;8347;52.486;13.432;2023-11-19T10:07:33;10.68;;;5.50;;
16472;SDS011;8347;52.486;13.432;2023-11-19T10:10:19;7.15;;;4.90;;
16472;SDS011;8347;52.486;13.432;2023-11-19T10:13:06;8.30;;;4.47;;
16472;SDS011;8347;52.486;13.432;2023-11-19T10:15:54;7.63;;;4.20;;
16472;SDS011;8347;52.486;13.432;2023-11-19T10:18:47;11.05;;;4.00;;
16472;SDS011;8347;52.486;13.432;2023-11-19T10:21:36;8.75;;;4.30;;
16472;SDS011;8347;52.486;13.432;2023-11-19T10:24:31;10.23;;;5.53;;
16472;SDS011;8347;52.486;13.432;2023-11-19T10:27:18;8.07;;;4.68;;
16472;SDS011;8347;52.486;13.432;2023-11-19T10:30:05;11.32;;;5.20;;
16472;SDS011;8347;52.486;13.432;2023-11-19T10:33:06;8.70;;;4.80;;
16472;SDS011;8347;52.486;13.432;2023-11-19T10:35:53;9.35;;;4.05;;
16472;SDS011;8347;52.486;13.432;2023-11-19T10:38:51;7.55;;;4.03;;
16472;SDS011;8347;52.486;13.432;2023-11-19T10:41:38;6.80;;;3.75;;
16472;SDS011;8347;52.486;13.432;2023-11-19T10:44:32;8.43;;;3.70;;
16472;SDS011;8347;52.486;13.432;2023-11-19T10:47:22;8.23;;;3.88;;
16472;SDS011;8347;52.486;13.432;2023-11-19T10:50:09;7.25;;;3.92;;
16472;SDS011;8347;52.486;13.432;2023-11-19T10:52:56;7.95;;;3.47;;
16472;SDS011;8347;52.486;13.432;2023-11-19T10:55:47;7.65;;;3.28;;
16472;SDS011;8347;52.486;13.432;2023-11-19T10:58:34;7.68;;;3.58;;
16472;SDS011;8347;52.486;13.432;2023-11-19T11:01:23;9.18;;;4.40;;
16472;SDS011;8347;52.486;13.432;2023-11-19T11:04:13;9.10;;;3.60;;
16472;SDS011;8347;52.486;13.432;2023-11-19T11:07:03;5.90;;;2.80;;
16472;SDS011;8347;52.486;13.432;2023-11-19T11:09:51;8.32;;;3.40;;
16472;SDS011;8347;52.486;13.432;2023-11-19T11:12:37;14.95;;;4.47;;
16472;SDS011;8347;52.486;13.432;2023-11-19T11:15:28;11.90;;;3.78;;
16472;SDS011;8347;52.486;13.432;2023-11-19T11:18:15;15.05;;;3.90;;
16472;SDS011;8347;52.486;13.432;2023-11-19T11:21:05;9.77;;;3.63;;
16472;SDS011;8347;52.486;13.432;2023-11-19T11:24:08;15.35;;;4.22;;
16472;SDS011;8347;52.486;13.432;2023-11-19T11:30:35;10.88;;;3.88;;
16472;SDS011;8347;52.486;13.432;2023-11-19T11:36:19;19.85;;;4.72;;
16472;SDS011;8347;52.486;13.432;2023-11-19T11:39:08;16.92;;;5.05;;
16472;SDS011;8347;52.486;13.432;2023-11-19T11:42:41;15.43;;;6.05;;
16472;SDS011;8347;52.486;13.432;2023-11-19T11:45:08;16.00;;;6.40;;
16472;SDS011;8347;52.486;13.432;2023-11-19T11:50:52;19.20;;;4.53;;
16472;SDS011;8347;52.486;13.432;2023-11-19T11:53:39;13.27;;;5.07;;
16472;SDS011;8347;52.486;13.432;2023-11-19T11:56:32;17.88;;;6.38;;
16472;SDS011;8347;52.486;13.432;2023-11-19T11:59:19;20.48;;;8.40;;
16472;SDS011;8347;52.486;13.432;2023-11-19T12:02:07;23.67;;;7.30;;
16472;SDS011;8347;52.486;13.432;2023-11-19T12:04:54;17.30;;;6.85;;
16472;SDS011;8347;52.486;13.432;2023-11-19T12:07:40;19.63;;;5.40;;
16472;SDS011;8347;52.486;13.432;2023-11-19T12:10:31;18.42;;;7.35;;
16472;SDS011;8347;52.486;13.432;2023-11-19T12:13:18;23.13;;;5.82;;
16472;SDS011;8347;52.486;13.432;2023-11-19T12:16:08;23.15;;;5.65;;
16472;SDS011;8347;52.486;13.432;2023-11-19T12:18:54;22.77;;;6.05;;
16472;SDS011;8347;52.486;13.432;2023-11-19T12:21:42;30.23;;;6.57;;
16472;SDS011;8347;52.486;13.432;2023-11-19T12:24:28;19.80;;;6.07;;
16472;SDS011;8347;52.486;13.432;2023-11-19T12:27:15;23.23;;;5.97;;
16472;SDS011;8347;52.486;13.432;2023-11-19T12:30:02;23.30;;;6.57;;
16472;SDS011;8347;52.486;13.432;2023-11-19T12:32:50;23.98;;;7.90;;
16472;SDS011;8347;52.486;13.432;2023-11-19T12:35:39;17.90;;;5.35;;
16472;SDS011;8347;52.486;13.432;2023-11-19T12:38:26;17.02;;;6.05;;
16472;SDS011;8347;52.486;13.432;2023-11-19T12:41:13;18.80;;;6.97;;
16472;SDS011;8347;52.486;13.432;2023-11-19T12:44:09;30.30;;;9.48;;
16472;SDS011;8347;52.486;13.432;2023-11-19T12:47:01;25.15;;;8.68;;
16472;SDS011;8347;52.486;13.432;2023-11-19T12:49:56;23.77;;;6.05;;
16472;SDS011;8347;52.486;13.432;2023-11-19T12:52:42;22.88;;;6.07;;
16472;SDS011;8347;52.486;13.432;2023-11-19T12:55:29;13.70;;;4.32;;
16472;SDS011;8347;52.486;13.432;2023-11-19T12:58:28;23.13;;;5.32;;
16472;SDS011;8347;52.486;13.432;2023-11-19T13:01:18;22.20;;;5.95;;
16472;SDS011;8347;52.486;13.432;2023-11-19T13:04:16;50.90;;;15.65;;
16472;SDS011;8347;52.486;13.432;2023-11-19T13:07:02;29.55;;;6.85;;
16472;SDS011;8347;52.486;13.432;2023-11-19T13:09:50;28.20;;;5.97;;
16472;SDS011;8347;52.486;13.432;2023-11-19T13:12:39;16.73;;;6.45;;
16472;SDS011;8347;52.486;13.432;2023-11-19T13:15:26;28.27;;;8.35;;
16472;SDS011;8347;52.486;13.432;2023-11-19T13:18:12;35.10;;;11.38;;
16472;SDS011;8347;52.486;13.432;2023-11-19T13:20:59;30.15;;;7.82;;
16472;SDS011;8347;52.486;13.432;2023-11-19T13:23:46;17.95;;;6.35;;
16472;SDS011;8347;52.486;13.432;2023-11-19T13:26:32;20.48;;;5.85;;
16472;SDS011;8347;52.486;13.432;2023-11-19T13:29:18;21.70;;;6.40;;
16472;SDS011;8347;52.486;13.432;2023-11-19T13:32:05;17.75;;;5.70;;
16472;SDS011;8347;52.486;13.432;2023-11-19T13:34:52;23.92;;;7.47;;
16472;SDS011;8347;52.486;13.432;2023-11-19T13:37:38;27.55;;;8.52;;
16472;SDS011;8347;52.486;13.432;2023-11-19T13:40:25;28.63;;;8.70;;
16472;SDS011;8347;52.486;13.432;2023-11-19T13:43:12;23.45;;;5.60;;
16472;SDS011;8347;52.486;13.432;2023-11-19T13:45:58;17.45;;;4.88;;
16472;SDS011;8347;52.486;13.432;2023-11-19T13:48:45;29.30;;;6.20;;
16472;SDS011;8347;52.486;13.432;2023-11-19T13:51:31;22.80;;;6.32;;
16472;SDS011;8347;52.486;13.432;2023-11-19T13:54:18;24.70;;;8.35;;
16472;SDS011;8347;52.486;13.432;2023-11-19T13:57:06;34.33;;;11.07;;
16472;SDS011;8347;52.486;13.432;2023-11-19T13:59:52;26.05;;;8.30;;
16472;SDS011;8347;52.486;13.432;2023-11-19T14:02:39;30.52;;;10.07;;
16472;SDS011;8347;52.486;13.432;2023-11-19T14:05:26;28.85;;;8.73;;
16472;SDS011;8347;52.486;13.432;2023-11-19T14:08:13;22.20;;;6.93;;
16472;SDS011;8347;52.486;13.432;2023-11-19T14:10:59;25.00;;;5.65;;
16472;SDS011;8347;52.486;13.432;2023-11-19T14:13:46;26.17;;;6.55;;
16472;SDS011;8347;52.486;13.432;2023-11-19T14:16:32;26.25;;;7.85;;
16472;SDS011;8347;52.486;13.432;2023-11-19T14:19:20;19.35;;;6.07;;
16472;SDS011;8347;52.486;13.432;2023-11-19T14:22:06;20.30;;;7.80;;
16472;SDS011;8347;52.486;13.432;2023-11-19T14:24:54;16.02;;;6.10;;
16472;SDS011;8347;52.486;13.432;2023-11-19T14:27:41;18.20;;;5.30;;
16472;SDS011;8347;52.486;13.432;2023-11-19T14:30:28;27.50;;;6.05;;
16472;SDS011;8347;52.486;13.432;2023-11-19T14:33:14;26.27;;;7.22;;
16472;SDS011;8347;52.486;13.432;2023-11-19T14:36:01;26.77;;;8.15;;
16472;SDS011;8347;52.486;13.432;2023-11-19T14:38:48;28.20;;;8.40;;
16472;SDS011;8347;52.486;13.432;2023-11-19T14:41:34;25.50;;;7.75;;
16472;SDS011;8347;52.486;13.432;2023-11-19T14:44:20;28.23;;;7.60;;
16472;SDS011;8347;52.486;13.432;2023-11-19T14:47:07;22.08;;;6.97;;
16472;SDS011;8347;52.486;13.432;2023-11-19T14:49:53;26.77;;;8.15;;
16472;SDS011;8347;52.486;13.432;2023-11-19T14:52:40;28.30;;;7.22;;
16472;SDS011;8347;52.486;13.432;2023-11-19T14:55:26;25.42;;;8.13;;
16472;SDS011;8347;52.486;13.432;2023-11-19T14:58:13;26.75;;;6.25;;
16472;SDS011;8347;52.486;13.432;2023-11-19T15:01:00;22.10;;;5.78;;
16472;SDS011;8347;52.486;13.432;2023-11-19T15:03:50;24.55;;;7.43;;
16472;SDS011;8347;52.486;13.432;2023-11-19T15:06:37;26.63;;;8.13;;
16472;SDS011;8347;52.486;13.432;2023-11-19T15:09:24;32.97;;;9.07;;
16472;SDS011;8347;52.486;13.432;2023-11-19T15:12:11;26.60;;;8.60;;
16472;SDS011;8347;52.486;13.432;2023-11-19T15:14:57;21.77;;;7.65;;
16472;SDS011;8347;52.486;13.432;2023-11-19T15:17:44;22.95;;;6.72;;
16472;SDS011;8347;52.486;13.432;2023-11-19T15:20:31;37.35;;;12.30;;
16472;SDS011;8347;52.486;13.432;2023-11-19T15:23:17;24.92;;;8.70;;
16472;SDS011;8347;52.486;13.432;2023-11-19T15:26:06;24.90;;;6.97;;
16472;SDS011;8347;52.486;13.432;2023-11-19T15:28:55;27.20;;;9.15;;
16472;SDS011;8347;52.486;13.432;2023-11-19T15:31:44;31.80;;;9.05;;
16472;SDS011;8347;52.486;13.432;2023-11-19T15:34:31;31.25;;;9.23;;
16472;SDS011;8347;52.486;13.432;2023-11-19T15:37:18;24.25;;;8.40;;
16472;SDS011;8347;52.486;13.432;2023-11-19T15:40:04;34.10;;;7.30;;
16472;SDS011;8347;52.486;13.432;2023-11-19T15:42:53;27.63;;;8.75;;
16472;SDS011;8347;52.486;13.432;2023-11-19T15:45:43;29.95;;;10.55;;
16472;SDS011;8347;52.486;13.432;2023-11-19T15:48:29;24.02;;;8.00;;
16472;SDS011;8347;52.486;13.432;2023-11-19T15:51:17;26.77;;;8.25;;
16472;SDS011;8347;52.486;13.432;2023-11-19T15:54:03;25.00;;;7.03;;
16472;SDS011;8347;52.486;13.432;2023-11-19T15:56:51;26.10;;;8.32;;
16472;SDS011;8347;52.486;13.432;2023-11-19T15:59:37;22.00;;;7.22;;
16472;SDS011;8347;52.486;13.432;2023-11-19T16:02:24;20.85;;;6.53;;
16472;SDS011;8347;52.486;13.432;2023-11-19T16:05:10;25.20;;;7.45;;
16472;SDS011;8347;52.486;13.432;2023-11-19T16:07:57;29.00;;;9.45;;
16472;SDS011;8347;52.486;13.432;2023-11-19T16:10:44;21.60;;;8.27;;
16472;SDS011;8347;52.486;13.432;2023-11-19T16:13:32;31.15;;;7.97;;
16472;SDS011;8347;52.486;13.432;2023-11-19T16:16:19;23.80;;;8.45;;
16472;SDS011;8347;52.486;13.432;2023-11-19T16:19:08;24.77;;;8.13;;
16472;SDS011;8347;52.486;13.432;2023-11-19T16:21:54;23.25;;;6.85;;
16472;SDS011;8347;52.486;13.432;2023-11-19T16:24:41;41.17;;;8.15;;
16472;SDS011;8347;52.486;13.432;2023-11-19T16:27:27;32.35;;;9.00;;
16472;SDS011;8347;52.486;13.432;2023-11-19T16:30:14;34.83;;;10.32;;
16472;SDS011;8347;52.486;13.432;2023-11-19T16:33:01;26.65;;;8.13;;
16472;SDS011;8347;52.486;13.432;2023-11-19T16:35:48;31.25;;;10.60;;
16472;SDS011;8347;52.486;13.432;2023-11-19T16:38:35;28.13;;;10.13;;
16472;SDS011;8347;52.486;13.432;2023-11-19T16:41:22;22.55;;;8.93;;
16472;SDS011;8347;52.486;13.432;2023-11-19T16:44:08;26.23;;;8.27;;
16472;SDS011;8347;52.486;13.432;2023-11-19T16:46:55;25.02;;;8.00;;
16472;SDS011;8347;52.486;13.432;2023-11-19T16:49:42;31.67;;;9.40;;
16472;SDS011;8347;52.486;13.432;2023-11-19T16:52:28;22.13;;;7.50;;